createdAt,value
2023-10-29T00:02:24.509Z,98211.03
2023-10-29T00:04:51.370Z,98200.88
2023-10-29T00:07:18.018Z,98191.03
2023-10-29T00:09:44.680Z,98211.47
2023-10-29T00:12:11.320Z,98210.34
2023-10-29T00:14:37.960Z,98208.25
2023-10-29T00:17:04.788Z,98203.50
2023-10-29T00:19:33.216Z,98187.63
2023-10-29T00:21:59.790Z,98184.56
2023-10-29T00:24:26.378Z,98186.69
2023-10-29T00:26:53.039Z,98179.28
2023-10-29T00:29:19.897Z,98192.59
2023-10-29T00:31:46.583Z,98174.72
2023-10-29T00:34:13.155Z,98176.69
2023-10-29T00:36:40.498Z,98188.09
2023-10-29T00:39:08.725Z,98188.31
2023-10-29T00:41:35.437Z,98191.00
2023-10-29T00:44:02.154Z,98186.97
2023-10-29T00:46:28.909Z,98183.53
2023-10-29T00:48:55.597Z,98181.91
2023-10-29T00:51:22.470Z,98193.19
2023-10-29T00:53:49.430Z,98184.66
2023-10-29T00:56:19.728Z,98178.69
2023-10-29T00:58:47.536Z,98184.81
2023-10-29T01:01:14.369Z,98190.00
2023-10-29T01:03:44.685Z,98195.34
2023-10-29T01:06:12.174Z,98198.88
2023-10-29T01:08:39.474Z,98201.53
2023-10-29T01:11:08.163Z,98193.81
2023-10-29T01:13:34.873Z,98193.91
2023-10-29T01:16:06.129Z,98200.00
2023-10-29T01:18:33.255Z,98201.75
2023-10-29T01:21:00.297Z,98190.59
2023-10-29T01:23:29.684Z,98200.25
2023-10-29T01:25:59.440Z,98211.59
2023-10-29T01:28:26.603Z,98210.69
2023-10-29T01:30:53.428Z,98213.31
2023-10-29T01:33:20.131Z,98213.31
2023-10-29T01:35:47.123Z,98213.31
2023-10-29T01:38:13.815Z,98229.78
2023-10-29T01:40:40.384Z,98220.22
2023-10-29T01:43:07.001Z,98227.19
2023-10-29T01:45:33.867Z,98218.66
2023-10-29T01:48:00.908Z,98217.97
2023-10-29T01:50:27.647Z,98228.34
2023-10-29T01:52:55.139Z,98223.25
2023-10-29T01:55:22.126Z,98217.41
2023-10-29T01:57:48.779Z,98223.59
2023-10-29T02:00:15.877Z,98219.38
2023-10-29T02:02:42.768Z,98225.56
2023-10-29T02:05:09.827Z,98231.75
2023-10-29T02:07:36.452Z,98235.34
2023-10-29T02:10:03.264Z,98245.78
2023-10-29T02:12:29.849Z,98249.28
2023-10-29T02:14:57.312Z,98247.75
2023-10-29T02:17:26.294Z,98248.78
2023-10-29T02:19:53.212Z,98258.41
2023-10-29T02:22:19.811Z,98255.94
2023-10-29T02:24:46.607Z,98265.56
2023-10-29T02:27:13.498Z,98275.94
2023-10-29T02:29:40.124Z,98281.31
2023-10-29T02:32:07.779Z,98282.25
2023-10-29T02:34:34.412Z,98289.31
2023-10-29T02:37:01.034Z,98293.75
2023-10-29T02:39:27.614Z,98292.97
2023-10-29T02:41:54.299Z,98304.25
2023-10-29T02:44:21.083Z,98317.28
2023-10-29T02:46:47.677Z,98313.09
2023-10-29T02:49:14.463Z,98314.88
2023-10-29T02:51:41.232Z,98317.63
2023-10-29T02:54:07.882Z,98322.88
2023-10-29T02:56:39.471Z,98334.22
2023-10-29T02:59:06.224Z,98338.66
2023-10-29T03:01:33.186Z,98345.50
2023-10-29T03:04:00.072Z,98349.06
2023-10-29T03:06:26.758Z,98353.41
2023-10-29T03:08:53.419Z,98348.38
2023-10-29T03:11:20.157Z,98358.81
2023-10-29T03:13:46.795Z,98365.75
2023-10-29T03:16:13.381Z,98364.06
2023-10-29T03:18:40.304Z,98377.91
2023-10-29T03:21:06.848Z,98377.00
2023-10-29T03:23:33.522Z,98374.41
2023-10-29T03:26:03.784Z,98385.69
2023-10-29T03:28:30.837Z,98381.34
2023-10-29T03:30:58.004Z,98386.47
2023-10-29T03:33:24.657Z,98390.03
2023-10-29T03:35:51.666Z,98397.81
2023-10-29T03:38:18.348Z,98400.50
2023-10-29T03:40:45.182Z,98404.81
2023-10-29T03:43:11.777Z,98407.47
2023-10-29T03:45:38.433Z,98416.16
2023-10-29T03:48:05.377Z,98420.50
2023-10-29T03:50:32.044Z,98422.31
2023-10-29T03:52:58.703Z,98433.50
2023-10-29T03:55:25.398Z,98430.16
2023-10-29T03:57:52.069Z,98438.84
2023-10-29T04:00:18.781Z,98438.94
2023-10-29T04:02:45.518Z,98432.94
2023-10-29T04:05:12.466Z,98441.63
2023-10-29T04:07:39.239Z,98437.53
2023-10-29T04:10:08.650Z,98444.31
2023-10-29T04:12:35.289Z,98434.03
2023-10-29T04:15:02.336Z,98445.31
2023-10-29T04:17:29.036Z,98446.22
2023-10-29T04:19:55.912Z,98445.41
2023-10-29T04:22:23.813Z,98456.69
2023-10-29T04:24:51.560Z,98453.34
2023-10-29T04:27:18.255Z,98457.78
2023-10-29T04:29:44.938Z,98462.13
2023-10-29T04:32:11.593Z,98451.88
2023-10-29T04:34:38.185Z,98464.06
2023-10-29T04:37:04.844Z,98456.34
2023-10-29T04:39:31.401Z,98464.25
2023-10-29T04:41:58.118Z,98474.66
2023-10-29T04:44:24.758Z,98473.00
2023-10-29T04:46:51.379Z,98482.56
2023-10-29T04:49:17.980Z,98485.25
2023-10-29T04:51:44.804Z,98479.31
2023-10-29T04:54:12.981Z,98482.84
2023-10-29T04:56:39.687Z,98485.50
2023-10-29T04:59:06.382Z,98494.19
2023-10-29T05:01:33.086Z,98491.69
2023-10-29T05:03:59.826Z,98493.50
2023-10-29T05:06:26.496Z,98494.44
2023-10-29T05:08:53.175Z,98490.19
2023-10-29T05:11:19.910Z,98497.16
2023-10-29T05:13:46.533Z,98498.16
2023-10-29T05:16:15.867Z,98499.09
2023-10-29T05:18:42.945Z,98498.25
2023-10-29T05:21:09.606Z,98501.81
2023-10-29T05:23:36.259Z,98508.78
2023-10-29T05:26:03.084Z,98511.47
2023-10-29T05:28:29.729Z,98510.66
2023-10-29T05:30:56.492Z,98516.75
2023-10-29T05:33:23.245Z,98517.72
2023-10-29T05:35:50.032Z,98523.00
2023-10-29T05:38:16.652Z,98517.00
2023-10-29T05:40:43.575Z,98523.13
2023-10-29T05:43:11.098Z,98535.25
2023-10-29T05:45:37.853Z,98530.22
2023-10-29T05:48:04.728Z,98540.66
2023-10-29T05:50:31.529Z,98531.25
2023-10-29T05:52:58.223Z,98534.75
2023-10-29T05:55:25.398Z,98541.78
2023-10-29T05:57:53.182Z,98550.44
2023-10-29T06:00:20.185Z,98559.16
2023-10-29T06:02:46.936Z,98568.75
2023-10-29T06:05:13.686Z,98563.59
2023-10-29T06:07:44.907Z,98574.91
2023-10-29T06:10:13.692Z,98576.78
2023-10-29T06:12:41.222Z,98581.16
2023-10-29T06:15:11.820Z,98576.97
2023-10-29T06:17:39.667Z,98580.47
2023-10-29T06:20:08.390Z,98584.00
2023-10-29T06:22:35.234Z,98590.97
2023-10-29T06:25:03.183Z,98592.81
2023-10-29T06:27:29.938Z,98605.78
2023-10-29T06:29:56.606Z,98598.13
2023-10-29T06:32:23.292Z,98613.69
2023-10-29T06:34:50.161Z,98609.41
2023-10-29T06:37:17.106Z,98626.75
2023-10-29T06:39:43.654Z,98621.63
2023-10-29T06:42:10.274Z,98635.50
2023-10-29T06:44:36.956Z,98629.47
2023-10-29T06:47:04.538Z,98632.13
2023-10-29T06:49:31.435Z,98634.75
2023-10-29T06:51:58.209Z,98639.97
2023-10-29T06:54:25.695Z,98647.81
2023-10-29T06:56:52.522Z,98652.13
2023-10-29T06:59:19.813Z,98662.50
2023-10-29T07:01:48.294Z,98663.41
2023-10-29T07:04:15.187Z,98661.69
2023-10-29T07:06:43.797Z,98674.69
2023-10-29T07:09:11.672Z,98676.38
2023-10-29T07:11:38.420Z,98664.41
2023-10-29T07:14:05.295Z,98659.28
2023-10-29T07:16:32.124Z,98663.56
2023-10-29T07:18:59.087Z,98673.91
2023-10-29T07:21:26.846Z,98665.25
2023-10-29T07:23:54.552Z,98671.31
2023-10-29T07:26:21.306Z,98681.63
2023-10-29T07:28:48.005Z,98679.03
2023-10-29T07:31:19.479Z,98683.34
2023-10-29T07:33:48.323Z,98691.13
2023-10-29T07:36:14.998Z,98700.47
2023-10-29T07:38:41.773Z,98690.91
2023-10-29T07:41:08.429Z,98694.28
2023-10-29T07:43:35.103Z,98702.84
2023-10-29T07:46:05.429Z,98707.91
2023-10-29T07:48:32.342Z,98713.84
2023-10-29T07:51:00.822Z,98713.81
2023-10-29T07:53:29.231Z,98710.28
2023-10-29T07:55:55.897Z,98718.78
2023-10-29T07:58:23.184Z,98710.94
2023-10-29T08:00:50.035Z,98708.19
2023-10-29T08:03:19.474Z,98711.53
2023-10-29T08:05:52.742Z,98716.63
2023-10-29T08:08:19.974Z,98737.97
2023-10-29T08:10:46.933Z,98734.31
2023-10-29T08:13:13.589Z,98732.47
2023-10-29T08:15:42.327Z,98739.19
2023-10-29T08:18:10.437Z,98744.16
2023-10-29T08:20:37.230Z,98752.53
2023-10-29T08:23:04.105Z,98753.22
2023-10-29T08:25:30.667Z,98745.25
2023-10-29T08:27:57.489Z,98746.66
2023-10-29T08:30:24.216Z,98744.53
2023-10-29T08:32:50.918Z,98742.19
2023-10-29T08:35:17.681Z,98748.22
2023-10-29T08:37:46.554Z,98741.78
2023-10-29T08:40:14.180Z,98742.91
2023-10-29T08:42:40.845Z,98748.09
2023-10-29T08:45:07.909Z,98741.31
2023-10-29T08:47:34.642Z,98740.69
2023-10-29T08:50:01.349Z,98747.84
2023-10-29T08:52:28.321Z,98762.78
2023-10-29T08:54:55.369Z,98762.75
2023-10-29T08:57:22.601Z,98761.97
2023-10-29T08:59:49.510Z,98772.69
2023-10-29T09:02:16.349Z,98768.09
2023-10-29T09:04:43.026Z,98777.44
2023-10-29T09:07:09.600Z,98792.16
2023-10-29T09:09:38.702Z,98785.34
2023-10-29T09:12:05.691Z,98785.13
2023-10-29T09:14:32.412Z,98779.06
2023-10-29T09:16:59.323Z,98790.34
2023-10-29T09:19:26.675Z,98777.38
2023-10-29T09:21:53.295Z,98774.81
2023-10-29T09:24:19.911Z,98771.38
2023-10-29T09:26:46.705Z,98777.78
2023-10-29T09:29:13.322Z,98773.00
2023-10-29T09:31:40.064Z,98771.91
2023-10-29T09:34:06.706Z,98784.81
2023-10-29T09:36:33.294Z,98786.16
2023-10-29T09:39:00.135Z,98792.91
2023-10-29T09:41:26.778Z,98785.66
2023-10-29T09:43:54.784Z,98789.66
2023-10-29T09:46:24.909Z,98794.94
2023-10-29T09:48:54.642Z,98793.41
2023-10-29T09:51:22.932Z,98787.16
2023-10-29T09:53:52.872Z,98795.06
2023-10-29T09:56:19.629Z,98795.38
2023-10-29T09:58:46.595Z,98793.53
2023-10-29T10:01:13.462Z,98804.13
2023-10-29T10:03:40.388Z,98798.44
2023-10-29T10:06:07.645Z,98810.44
2023-10-29T10:08:34.548Z,98818.41
2023-10-29T10:11:02.332Z,98823.69
2023-10-29T10:13:42.152Z,98808.28
2023-10-29T10:16:16.924Z,98809.88
2023-10-29T10:18:52.986Z,98815.09
2023-10-29T10:21:24.921Z,98812.53
2023-10-29T10:23:54.683Z,98813.34
2023-10-29T10:26:32.389Z,98806.41
2023-10-29T10:29:00.366Z,98806.16
2023-10-29T10:31:32.460Z,98802.47
2023-10-29T10:34:19.150Z,98807.59
2023-10-29T10:36:50.262Z,98809.50
2023-10-29T10:39:23.282Z,98818.63
2023-10-29T10:41:50.989Z,98822.38
2023-10-29T10:44:21.997Z,98819.22
2023-10-29T10:46:50.772Z,98818.59
2023-10-29T10:49:18.889Z,98808.47
2023-10-29T10:51:48.599Z,98789.81
2023-10-29T10:54:20.453Z,98797.50
2023-10-29T10:56:48.216Z,98797.56
2023-10-29T10:59:15.564Z,98796.81
2023-10-29T11:01:42.645Z,98789.97
2023-10-29T11:04:11.096Z,98799.53
2023-10-29T11:06:39.395Z,98790.03
2023-10-29T11:09:13.443Z,98782.28
2023-10-29T11:12:00.468Z,98785.84
2023-10-29T11:14:27.390Z,98784.81
2023-10-29T11:16:56.523Z,98781.38
2023-10-29T11:19:48.436Z,98776.94
2023-10-29T11:22:14.942Z,98788.16
2023-10-29T11:24:41.761Z,98789.00
2023-10-29T11:27:37.427Z,98780.34
2023-10-29T11:30:24.581Z,98787.22
2023-10-29T11:33:26.113Z,98787.84
2023-10-29T11:36:34.134Z,98783.41
2023-10-29T11:39:16.125Z,98776.34
2023-10-29T11:41:45.812Z,98777.22
2023-10-29T11:44:33.909Z,98779.75
2023-10-29T11:47:02.041Z,98783.09
2023-10-29T11:49:30.603Z,98770.06
2023-10-29T11:52:02.775Z,98768.47
2023-10-29T11:54:33.816Z,98768.53
2023-10-29T11:57:01.261Z,98774.66
2023-10-29T11:59:27.915Z,98770.38
2023-10-29T12:01:54.605Z,98769.63
2023-10-29T12:04:21.276Z,98780.03
2023-10-29T12:06:49.851Z,98776.78
2023-10-29T12:09:20.966Z,98774.28
2023-10-29T12:11:50.433Z,98788.06
2023-10-29T12:14:42.455Z,98783.13
2023-10-29T12:17:10.847Z,98790.09
2023-10-29T12:19:39.120Z,98794.56
2023-10-29T12:22:21.302Z,98795.75
2023-10-29T12:24:50.593Z,98796.84
2023-10-29T12:27:18.188Z,98805.78
2023-10-29T12:29:45.085Z,98804.44
2023-10-29T12:32:23.638Z,98813.88
2023-10-29T12:34:58.270Z,98812.50
2023-10-29T12:37:29.383Z,98809.66
2023-10-29T12:40:01.027Z,98819.78
2023-10-29T12:43:00.297Z,98809.31
2023-10-29T12:45:28.421Z,98808.09
2023-10-29T12:48:15.810Z,98812.66
2023-10-29T12:50:52.586Z,98820.06
2023-10-29T12:53:30.384Z,98833.00
2023-10-29T12:55:59.163Z,98828.44
2023-10-29T12:58:27.426Z,98827.22
2023-10-29T13:00:56.864Z,98819.09
2023-10-29T13:03:25.197Z,98829.94
2023-10-29T13:05:55.279Z,98826.91
2023-10-29T13:08:23.517Z,98836.00
2023-10-29T13:10:50.087Z,98831.22
2023-10-29T13:13:16.765Z,98826.38
2023-10-29T13:15:43.530Z,98830.09
2023-10-29T13:18:13.422Z,98825.13
2023-10-29T13:20:40.440Z,98827.03
2023-10-29T13:23:07.023Z,98821.09
2023-10-29T13:25:33.616Z,98834.13
2023-10-29T13:28:01.087Z,98830.88
2023-10-29T13:30:28.467Z,98831.75
2023-10-29T13:32:56.067Z,98830.06
2023-10-29T13:35:23.338Z,98836.13
2023-10-29T13:37:49.931Z,98831.84
2023-10-29T13:40:16.575Z,98837.09
2023-10-29T13:42:43.270Z,98825.03
2023-10-29T13:45:12.532Z,98822.50
2023-10-29T13:47:39.136Z,98831.16
2023-10-29T13:50:06.992Z,98827.78
2023-10-29T13:52:33.591Z,98831.28
2023-10-29T13:55:00.197Z,98835.66
2023-10-29T13:57:26.802Z,98831.38
2023-10-29T13:59:53.459Z,98829.69
2023-10-29T14:02:23.311Z,98834.88
2023-10-29T14:04:50.213Z,98829.75
2023-10-29T14:07:17.137Z,98832.28
2023-10-29T14:09:43.834Z,98835.66
2023-10-29T14:12:10.411Z,98834.66
2023-10-29T14:14:38.087Z,98821.38
2023-10-29T14:17:06.892Z,98827.03
2023-10-29T14:19:33.628Z,98842.94
2023-10-29T14:22:00.274Z,98841.72
2023-10-29T14:24:27.064Z,98851.53
2023-10-29T14:26:56.754Z,98852.84
2023-10-29T14:29:23.513Z,98849.03
2023-10-29T14:31:50.169Z,98853.06
2023-10-29T14:34:16.812Z,98856.34
2023-10-29T14:36:43.374Z,98864.97
2023-10-29T14:39:10.029Z,98855.56
2023-10-29T14:41:36.753Z,98861.66
2023-10-29T14:44:03.938Z,98855.66
2023-10-29T14:46:30.684Z,98859.19
2023-10-29T14:49:00.218Z,98846.22
2023-10-29T14:51:26.789Z,98851.41
2023-10-29T14:53:53.486Z,98845.38
2023-10-29T14:56:22.242Z,98843.63
2023-10-29T14:58:48.865Z,98843.63
2023-10-29T15:01:15.492Z,98833.28
2023-10-29T15:03:42.394Z,98832.25
2023-10-29T15:06:12.541Z,98822.84
2023-10-29T15:08:39.469Z,98836.50
2023-10-29T15:11:06.655Z,98845.03
2023-10-29T15:13:33.358Z,98842.44
2023-10-29T15:16:13.227Z,98845.81
2023-10-29T15:18:40.429Z,98837.06
2023-10-29T15:21:11.483Z,98841.34
2023-10-29T15:23:38.585Z,98839.66
2023-10-29T15:26:12.855Z,98843.28
2023-10-29T15:28:39.561Z,98845.91
2023-10-29T15:31:10.099Z,98844.34
2023-10-29T15:33:37.092Z,98852.22
2023-10-29T15:36:08.808Z,98851.44
2023-10-29T15:38:36.405Z,98854.22
2023-10-29T15:41:03.908Z,98862.91
2023-10-29T15:43:30.685Z,98866.47
2023-10-29T15:45:58.112Z,98864.84
2023-10-29T15:48:25.221Z,98863.13
2023-10-29T15:50:53.318Z,98863.25
2023-10-29T15:53:21.260Z,98861.53
2023-10-29T15:55:48.616Z,98861.66
2023-10-29T15:58:19.437Z,98870.31
2023-10-29T16:00:50.302Z,98870.34
2023-10-29T16:03:19.948Z,98872.19
2023-10-29T16:05:46.772Z,98880.84
2023-10-29T16:08:13.370Z,98875.78
2023-10-29T16:10:40.111Z,98873.31
2023-10-29T16:13:06.772Z,98874.25
2023-10-29T16:15:33.508Z,98882.16
2023-10-29T16:18:00.442Z,98885.69
2023-10-29T16:20:27.267Z,98896.97
2023-10-29T16:22:53.952Z,98906.63
2023-10-29T16:25:20.979Z,98902.38
2023-10-29T16:27:47.525Z,98913.75
2023-10-29T16:30:14.178Z,98917.25
2023-10-29T16:32:40.862Z,98917.38
2023-10-29T16:35:08.362Z,98917.47
2023-10-29T16:37:34.917Z,98920.19
2023-10-29T16:40:01.863Z,98925.44
2023-10-29T16:42:28.536Z,98919.50
2023-10-29T16:44:55.279Z,98927.34
2023-10-29T16:47:22.009Z,98930.97
2023-10-29T16:49:51.018Z,98946.59
2023-10-29T16:52:17.968Z,98941.53
2023-10-29T16:54:46.563Z,98946.00
2023-10-29T16:57:13.808Z,98950.41
2023-10-29T16:59:41.305Z,98948.84
2023-10-29T17:02:08.209Z,98955.81
2023-10-29T17:04:35.537Z,98950.72
2023-10-29T17:07:04.004Z,98962.06
2023-10-29T17:09:31.464Z,98966.47
2023-10-29T17:11:58.294Z,98977.00
2023-10-29T17:14:25.049Z,98973.59
2023-10-29T17:16:51.679Z,98985.78
2023-10-29T17:19:18.350Z,98985.91
2023-10-29T17:21:45.098Z,98997.28
2023-10-29T17:24:11.847Z,98995.59
2023-10-29T17:26:38.506Z,99004.38
2023-10-29T17:29:05.248Z,99008.78
2023-10-29T17:31:32.670Z,99002.81
2023-10-29T17:33:59.710Z,98998.59
2023-10-29T17:36:26.349Z,99007.34
2023-10-29T17:38:54.051Z,99008.25
2023-10-29T17:41:22.956Z,99015.25
2023-10-29T17:43:52.848Z,99016.19
2023-10-29T17:46:21.763Z,99011.03
2023-10-29T17:48:50.019Z,99009.38
2023-10-29T17:51:16.830Z,99019.75
2023-10-29T17:53:47.629Z,99024.94
2023-10-29T17:56:15.112Z,99026.72
2023-10-29T17:58:42.019Z,99025.84
2023-10-29T18:01:08.919Z,99025.84
2023-10-29T18:03:35.636Z,99031.88
2023-10-29T18:06:15.612Z,99031.00
2023-10-29T18:08:43.382Z,99024.94
2023-10-29T18:11:12.563Z,99036.94
2023-10-29T18:13:39.905Z,99036.88
2023-10-29T18:16:09.289Z,99039.41
2023-10-29T18:18:36.962Z,99043.63
2023-10-29T18:21:04.064Z,99040.16
2023-10-29T18:23:30.902Z,99041.84
2023-10-29T18:25:58.943Z,99050.41
2023-10-29T18:28:25.688Z,99053.81
2023-10-29T18:30:52.486Z,99052.03
2023-10-29T18:33:19.370Z,99046.75
2023-10-29T18:35:46.808Z,99051.94
2023-10-29T18:38:13.957Z,99061.38
2023-10-29T18:40:41.488Z,99058.78
2023-10-29T18:43:08.159Z,99063.94
2023-10-29T18:45:40.287Z,99059.56
2023-10-29T18:48:07.077Z,99064.75
2023-10-29T18:50:34.691Z,99074.22
2023-10-29T18:53:01.556Z,99080.25
2023-10-29T18:55:28.112Z,99081.09
2023-10-29T18:57:54.767Z,99086.25
2023-10-29T19:00:21.463Z,99077.63
2023-10-29T19:02:48.240Z,99092.31
2023-10-29T19:05:15.495Z,99084.56
2023-10-29T19:07:42.541Z,99083.69
2023-10-29T19:10:09.718Z,99092.34
2023-10-29T19:12:36.475Z,99095.81
2023-10-29T19:15:04.471Z,99096.75
2023-10-29T19:17:31.179Z,99091.56
2023-10-29T19:19:57.747Z,99105.38
2023-10-29T19:22:24.460Z,99105.38
2023-10-29T19:24:51.092Z,99111.44
2023-10-29T19:27:18.114Z,99117.50
2023-10-29T19:29:44.826Z,99114.03
2023-10-29T19:32:11.558Z,99117.53
2023-10-29T19:34:38.351Z,99124.41
2023-10-29T19:37:04.979Z,99129.59
2023-10-29T19:39:32.065Z,99139.94
2023-10-29T19:41:58.764Z,99155.50
2023-10-29T19:44:25.314Z,99144.28
2023-10-29T19:46:51.909Z,99148.63
2023-10-29T19:49:18.534Z,99153.78
2023-10-29T19:51:45.162Z,99158.97
2023-10-29T19:54:11.858Z,99158.16
2023-10-29T19:56:38.532Z,99162.47
2023-10-29T19:59:05.186Z,99172.81
2023-10-29T20:01:31.837Z,99176.28
2023-10-29T20:04:00.134Z,99185.88
2023-10-29T20:06:27.076Z,99187.63
2023-10-29T20:08:53.969Z,99194.53
2023-10-29T20:11:20.673Z,99198.91
2023-10-29T20:13:49.009Z,99195.47
2023-10-29T20:16:15.938Z,99211.03
2023-10-29T20:18:42.760Z,99202.47
2023-10-29T20:21:17.772Z,99217.16
2023-10-29T20:23:45.540Z,99209.41
2023-10-29T20:26:16.202Z,99214.69
2023-10-29T20:28:43.061Z,99216.38
2023-10-29T20:31:09.806Z,99221.56
2023-10-29T20:33:36.481Z,99221.63
2023-10-29T20:36:04.132Z,99222.53
2023-10-29T20:38:30.945Z,99228.56
2023-10-29T20:40:57.597Z,99225.16
2023-10-29T20:43:24.470Z,99227.81
2023-10-29T20:45:52.650Z,99224.38
2023-10-29T20:48:19.456Z,99226.09
2023-10-29T20:50:52.942Z,99225.25
2023-10-29T20:53:20.184Z,99220.09
2023-10-29T20:55:47.376Z,99225.34
2023-10-29T20:58:14.798Z,99227.13
2023-10-29T21:00:42.037Z,99239.19
2023-10-29T21:03:08.953Z,99234.06
2023-10-29T21:05:35.769Z,99238.41
2023-10-29T21:08:02.350Z,99234.97
2023-10-29T21:10:30.309Z,99243.63
2023-10-29T21:12:57.170Z,99247.09
2023-10-29T21:15:24.949Z,99254.88
2023-10-29T21:17:51.925Z,99256.63
2023-10-29T21:20:19.209Z,99260.09
2023-10-29T21:22:46.062Z,99268.81
2023-10-29T21:25:12.696Z,99270.56
2023-10-29T21:27:39.468Z,99263.75
2023-10-29T21:30:08.092Z,99271.53
2023-10-29T21:32:34.882Z,99273.28
2023-10-29T21:35:01.679Z,99265.53
2023-10-29T21:37:28.260Z,99263.03
2023-10-29T21:39:54.854Z,99273.34
2023-10-29T21:42:22.746Z,99268.22
2023-10-29T21:44:52.351Z,99281.16
2023-10-29T21:47:19.051Z,99275.13
2023-10-29T21:49:51.675Z,99285.47
2023-10-29T21:52:18.299Z,99284.63
2023-10-29T21:54:50.825Z,99286.34
2023-10-29T21:57:18.383Z,99282.91
2023-10-29T21:59:45.250Z,99288.00
2023-10-29T22:02:11.928Z,99286.34
2023-10-29T22:04:39.042Z,99285.47
2023-10-29T22:07:06.226Z,99293.25
2023-10-29T22:09:33.044Z,99288.94
2023-10-29T22:11:59.940Z,99290.66
2023-10-29T22:14:26.765Z,99289.75
2023-10-29T22:16:53.742Z,99297.50
2023-10-29T22:19:20.431Z,99295.84
2023-10-29T22:21:47.085Z,99298.44
2023-10-29T22:24:13.745Z,99293.28
2023-10-29T22:26:40.402Z,99301.94
2023-10-29T22:29:07.252Z,99296.75
2023-10-29T22:31:34.024Z,99295.91
2023-10-29T22:34:00.641Z,99295.91
2023-10-29T22:36:27.490Z,99290.81
2023-10-29T22:38:54.142Z,99305.47
2023-10-29T22:41:20.820Z,99298.59
2023-10-29T22:43:47.514Z,99299.47
2023-10-29T22:46:22.689Z,99288.28
2023-10-29T22:48:51.488Z,99296.97
2023-10-29T22:51:19.425Z,99308.09
2023-10-29T22:53:46.869Z,99308.94
2023-10-29T22:56:14.117Z,99301.22
2023-10-29T22:58:40.800Z,99308.97
2023-10-29T23:01:09.926Z,99309.00
2023-10-29T23:03:36.867Z,99302.16
2023-10-29T23:06:04.477Z,99310.81
2023-10-29T23:08:31.559Z,99313.44
2023-10-29T23:10:58.477Z,99315.19
2023-10-29T23:13:26.141Z,99314.34
2023-10-29T23:15:54.352Z,99316.13
2023-10-29T23:18:21.164Z,99319.59
2023-10-29T23:20:47.801Z,99319.63
2023-10-29T23:23:16.993Z,99328.25
2023-10-29T23:25:44.954Z,99324.03
2023-10-29T23:28:19.522Z,99330.84
2023-10-29T23:30:53.776Z,99340.38
2023-10-29T23:33:20.568Z,99345.47
2023-10-29T23:35:47.302Z,99337.69
2023-10-29T23:38:13.857Z,99335.97
2023-10-29T23:40:41.136Z,99338.53
2023-10-29T23:43:07.990Z,99337.66
2023-10-29T23:45:34.689Z,99344.50
2023-10-29T23:48:02.325Z,99340.19
2023-10-29T23:50:29.102Z,99350.50
2023-10-29T23:52:55.661Z,99346.19
2023-10-29T23:55:22.236Z,99342.75
2023-10-29T23:57:48.799Z,99347.91
